sensor_id;sensor_type;location;lat;lon;timestamp;pressure;altitude;pressure_sealevel;temperature;humidity
60974;BME280;46846;51.528;5.076;2022-08-18T00:01:23;100769.56;;;21.13;50.87
60974;BME280;46846;51.528;5.076;2022-08-18T00:03:49;100769.31;;;21.16;51.39
60974;BME280;46846;51.528;5.076;2022-08-18T00:06:16;100760.34;;;21.16;51.15
60974;BME280;46846;51.528;5.076;2022-08-18T00:08:41;100756.66;;;21.17;50.82
60974;BME280;46846;51.528;5.076;2022-08-18T00:11:07;100755.06;;;21.14;51.37
60974;BME280;46846;51.528;5.076;2022-08-18T00:13:33;100755.06;;;21.14;51.47
60974;BME280;46846;51.528;5.076;2022-08-18T00:15:59;100747.03;;;21.13;50.97
60974;BME280;46846;51.528;5.076;2022-08-18T00:18:24;100753.06;;;21.16;51.54
60974;BME280;46846;51.528;5.076;2022-08-18T00:20:49;100754.94;;;21.16;50.95
60974;BME280;46846;51.528;5.076;2022-08-18T00:23:15;100758.47;;;21.16;51.24
60974;BME280;46846;51.528;5.076;2022-08-18T00:25:41;100764.03;;;21.15;51.28
60974;BME280;46846;51.528;5.076;2022-08-18T00:28:06;100777.56;;;21.15;51.08
60974;BME280;46846;51.528;5.076;2022-08-18T00:30:32;100791.09;;;21.15;51.92
60974;BME280;46846;51.528;5.076;2022-08-18T00:32:59;100780.50;;;21.12;51.83
60974;BME280;46846;51.528;5.076;2022-08-18T00:35:29;100774.25;;;21.11;50.89
60974;BME280;46846;51.528;5.076;2022-08-18T00:37:56;100775.09;;;21.12;51.28
60974;BME280;46846;51.528;5.076;2022-08-18T00:40:26;100774.25;;;21.11;50.54
60974;BME280;46846;51.528;5.076;2022-08-18T00:42:57;100776.09;;;21.11;51.22
60974;BME280;46846;51.528;5.076;2022-08-18T00:45:26;100777.06;;;21.10;50.86
60974;BME280;46846;51.528;5.076;2022-08-18T00:47:52;100789.72;;;21.09;52.02
60974;BME280;46846;51.528;5.076;2022-08-18T00:50:25;100782.59;;;21.08;50.98
60974;BME280;46846;51.528;5.076;2022-08-18T00:52:56;100790.59;;;21.10;50.85
60974;BME280;46846;51.528;5.076;2022-08-18T00:55:24;100790.81;;;21.07;50.88
60974;BME280;46846;51.528;5.076;2022-08-18T00:57:51;100783.69;;;21.06;51.43
60974;BME280;46846;51.528;5.076;2022-08-18T01:00:19;100786.28;;;21.07;51.42
60974;BME280;46846;51.528;5.076;2022-08-18T01:02:52;100781.00;;;21.06;51.06
60974;BME280;46846;51.528;5.076;2022-08-18T01:05:37;100785.56;;;21.05;50.66
60974;BME280;46846;51.528;5.076;2022-08-18T01:08:06;100791.81;;;21.06;51.12
60974;BME280;46846;51.528;5.076;2022-08-18T01:10:39;100793.41;;;21.08;51.08
60974;BME280;46846;51.528;5.076;2022-08-18T01:13:05;100792.69;;;21.06;51.52
60974;BME280;46846;51.528;5.076;2022-08-18T01:15:31;100784.69;;;21.04;51.16
60974;BME280;46846;51.528;5.076;2022-08-18T01:18:03;100784.69;;;21.04;50.79
60974;BME280;46846;51.528;5.076;2022-08-18T01:23:56;100774.25;;;21.00;51.29
60974;BME280;46846;51.528;5.076;2022-08-18T01:26:23;100768.81;;;21.00;51.33
60974;BME280;46846;51.528;5.076;2022-08-18T01:28:50;100769.69;;;21.00;51.07
60974;BME280;46846;51.528;5.076;2022-08-18T01:31:34;100764.16;;;21.02;50.44
60974;BME280;46846;51.528;5.076;2022-08-18T01:34:01;100768.81;;;21.00;51.91
60974;BME280;46846;51.528;5.076;2022-08-18T01:36:28;100769.94;;;20.97;51.97
60974;BME280;46846;51.528;5.076;2022-08-18T01:38:54;100766.50;;;20.95;51.03
60974;BME280;46846;51.528;5.076;2022-08-18T01:41:21;100762.81;;;20.96;52.00
60974;BME280;46846;51.528;5.076;2022-08-18T01:43:47;100759.38;;;20.94;51.93
60974;BME280;46846;51.528;5.076;2022-08-18T01:46:16;100767.59;;;20.93;51.03
60974;BME280;46846;51.528;5.076;2022-08-18T01:48:44;100765.00;;;20.91;51.67
60974;BME280;46846;51.528;5.076;2022-08-18T01:51:10;100774.09;;;20.90;52.02
60974;BME280;46846;51.528;5.076;2022-08-18T01:53:37;100778.66;;;20.89;51.46
60974;BME280;46846;51.528;5.076;2022-08-18T01:56:02;100774.97;;;20.90;51.63
60974;BME280;46846;51.528;5.076;2022-08-18T01:58:33;100776.69;;;20.92;51.10
60974;BME280;46846;51.528;5.076;2022-08-18T02:00:59;100775.97;;;20.89;52.10
60974;BME280;46846;51.528;5.076;2022-08-18T02:03:34;100775.97;;;20.89;51.18
60974;BME280;46846;51.528;5.076;2022-08-18T02:06:06;100777.78;;;20.89;51.35
60974;BME280;46846;51.528;5.076;2022-08-18T02:08:34;100771.53;;;20.88;52.26
60974;BME280;46846;51.528;5.076;2022-08-18T02:10:59;100772.66;;;20.86;51.55
60974;BME280;46846;51.528;5.076;2022-08-18T02:13:26;100764.63;;;20.84;51.47
60974;BME280;46846;51.528;5.076;2022-08-18T02:15:51;100775.53;;;20.83;51.61
60974;BME280;46846;51.528;5.076;2022-08-18T02:18:18;100770.28;;;20.81;51.45
60974;BME280;46846;51.528;5.076;2022-08-18T02:20:44;100777.06;;;20.87;51.41
60974;BME280;46846;51.528;5.076;2022-08-18T02:23:10;100774.69;;;20.82;51.03
60974;BME280;46846;51.528;5.076;2022-08-18T02:25:36;100778.25;;;20.83;51.47
60974;BME280;46846;51.528;5.076;2022-08-18T02:28:03;100777.41;;;20.82;52.14
60974;BME280;46846;51.528;5.076;2022-08-18T02:30:29;100774.44;;;20.74;51.45
60974;BME280;46846;51.528;5.076;2022-08-18T02:32:56;100770.13;;;20.71;51.18
60974;BME280;46846;51.528;5.076;2022-08-18T02:35:22;100770.00;;;20.73;51.46
60974;BME280;46846;51.528;5.076;2022-08-18T02:37:47;100773.47;;;20.75;51.39
60974;BME280;46846;51.528;5.076;2022-08-18T02:40:14;100772.69;;;20.73;51.52
60974;BME280;46846;51.528;5.076;2022-08-18T02:42:40;100776.63;;;20.69;51.52
60974;BME280;46846;51.528;5.076;2022-08-18T02:45:06;100776.75;;;20.67;51.74
60974;BME280;46846;51.528;5.076;2022-08-18T02:47:32;100782.28;;;20.66;51.97
60974;BME280;46846;51.528;5.076;2022-08-18T02:49:57;100783.88;;;20.68;51.28
60974;BME280;46846;51.528;5.076;2022-08-18T02:52:23;100779.34;;;20.69;52.03
60974;BME280;46846;51.528;5.076;2022-08-18T02:54:53;100785.59;;;20.69;51.73
60974;BME280;46846;51.528;5.076;2022-08-18T02:57:19;100784.03;;;20.67;52.09
60974;BME280;46846;51.528;5.076;2022-08-18T02:59:46;100784.13;;;20.65;52.13
60974;BME280;46846;51.528;5.076;2022-08-18T03:02:12;100781.44;;;20.65;52.10
60974;BME280;46846;51.528;5.076;2022-08-18T03:04:37;100773.31;;;20.65;51.82
60974;BME280;46846;51.528;5.076;2022-08-18T03:07:05;100774.16;;;20.66;51.73
60974;BME280;46846;51.528;5.076;2022-08-18T03:09:31;100778.09;;;20.61;52.00
60974;BME280;46846;51.528;5.076;2022-08-18T03:11:57;100771.97;;;20.59;52.00
60974;BME280;46846;51.528;5.076;2022-08-18T03:14:23;100774.53;;;20.61;51.86
60974;BME280;46846;51.528;5.076;2022-08-18T03:16:49;100772.06;;;20.58;51.96
60974;BME280;46846;51.528;5.076;2022-08-18T03:19:14;100774.66;;;20.59;51.82
60974;BME280;46846;51.528;5.076;2022-08-18T03:21:42;100777.38;;;20.59;51.48
60974;BME280;46846;51.528;5.076;2022-08-18T03:24:08;100781.16;;;20.57;52.05
60974;BME280;46846;51.528;5.076;2022-08-18T03:26:33;100784.72;;;20.57;52.08
60974;BME280;46846;51.528;5.076;2022-08-18T03:28:59;100790.13;;;20.57;52.03
60974;BME280;46846;51.528;5.076;2022-08-18T03:31:27;100790.13;;;20.57;51.62
60974;BME280;46846;51.528;5.076;2022-08-18T03:33:55;100780.28;;;20.56;52.20
60974;BME280;46846;51.528;5.076;2022-08-18T03:36:22;100788.66;;;20.53;51.77
60974;BME280;46846;51.528;5.076;2022-08-18T03:38:50;100783.47;;;20.50;51.61
60974;BME280;46846;51.528;5.076;2022-08-18T03:41:17;100786.19;;;20.50;51.91
60974;BME280;46846;51.528;5.076;2022-08-18T03:43:43;100786.19;;;20.50;52.13
60974;BME280;46846;51.528;5.076;2022-08-18T03:46:11;100782.50;;;20.51;51.69
60974;BME280;46846;51.528;5.076;2022-08-18T03:48:38;100776.34;;;20.49;52.06
60974;BME280;46846;51.528;5.076;2022-08-18T03:53:32;100775.72;;;20.45;52.11
60974;BME280;46846;51.528;5.076;2022-08-18T03:55:58;100775.72;;;20.45;52.40
60974;BME280;46846;51.528;5.076;2022-08-18T03:58:23;100788.41;;;20.45;52.16
60974;BME280;46846;51.528;5.076;2022-08-18T04:00:48;100789.38;;;20.44;52.07
60974;BME280;46846;51.528;5.076;2022-08-18T04:03:14;100788.63;;;20.42;51.94
60974;BME280;46846;51.528;5.076;2022-08-18T04:05:39;100792.19;;;20.42;52.24
60974;BME280;46846;51.528;5.076;2022-08-18T04:08:05;100788.63;;;20.42;52.19
60974;BME280;46846;51.528;5.076;2022-08-18T04:10:31;100791.31;;;20.42;52.14
60974;BME280;46846;51.528;5.076;2022-08-18T04:12:57;100785.91;;;20.42;52.32
60974;BME280;46846;51.528;5.076;2022-08-18T04:15:22;100777.06;;;20.40;52.14
60974;BME280;46846;51.528;5.076;2022-08-18T04:17:48;100790.69;;;20.38;52.32
60974;BME280;46846;51.528;5.076;2022-08-18T04:20:13;100784.66;;;20.34;52.35
60974;BME280;46846;51.528;5.076;2022-08-18T04:22:40;100784.91;;;20.31;52.11
60974;BME280;46846;51.528;5.076;2022-08-18T04:25:07;100782.31;;;20.30;52.09
60974;BME280;46846;51.528;5.076;2022-08-18T04:27:35;100786.88;;;20.29;52.17
60974;BME280;46846;51.528;5.076;2022-08-18T04:30:00;100783.19;;;20.30;51.72
60974;BME280;46846;51.528;5.076;2022-08-18T04:32:29;100790.31;;;20.31;51.69
60974;BME280;46846;51.528;5.076;2022-08-18T04:34:54;100790.31;;;20.31;51.92
60974;BME280;46846;51.528;5.076;2022-08-18T04:37:20;100792.38;;;20.28;52.25
60974;BME280;46846;51.528;5.076;2022-08-18T04:39:46;100794.84;;;20.31;51.96
60974;BME280;46846;51.528;5.076;2022-08-18T04:42:12;100794.00;;;20.30;52.00
60974;BME280;46846;51.528;5.076;2022-08-18T04:44:38;100797.69;;;20.29;52.97
60974;BME280;46846;51.528;5.076;2022-08-18T04:47:04;100796.81;;;20.29;52.27
60974;BME280;46846;51.528;5.076;2022-08-18T04:49:33;100805.03;;;20.27;52.27
60974;BME280;46846;51.528;5.076;2022-08-18T04:51:59;100807.72;;;20.27;52.40
60974;BME280;46846;51.528;5.076;2022-08-18T04:54:43;100807.88;;;20.26;51.92
60974;BME280;46846;51.528;5.076;2022-08-18T04:57:14;100809.78;;;20.24;51.96
60974;BME280;46846;51.528;5.076;2022-08-18T04:59:44;100808.97;;;20.23;51.92
60974;BME280;46846;51.528;5.076;2022-08-18T05:02:11;100794.09;;;20.17;52.33
60974;BME280;46846;51.528;5.076;2022-08-18T05:04:39;100805.72;;;20.18;52.13
60974;BME280;46846;51.528;5.076;2022-08-18T05:07:06;100800.09;;;20.21;52.48
60974;BME280;46846;51.528;5.076;2022-08-18T05:09:33;100809.31;;;20.18;52.07
60974;BME280;46846;51.528;5.076;2022-08-18T05:12:01;100813.84;;;20.18;52.00
60974;BME280;46846;51.528;5.076;2022-08-18T05:14:26;100821.94;;;20.18;51.90
60974;BME280;46846;51.528;5.076;2022-08-18T05:16:52;100817.41;;;20.18;52.62
60974;BME280;46846;51.528;5.076;2022-08-18T05:19:19;100810.28;;;20.17;51.79
60974;BME280;46846;51.528;5.076;2022-08-18T05:21:48;100819.34;;;20.16;51.75
60974;BME280;46846;51.528;5.076;2022-08-18T05:24:13;100814.94;;;20.15;52.51
60974;BME280;46846;51.528;5.076;2022-08-18T05:26:38;100814.19;;;20.13;53.54
60974;BME280;46846;51.528;5.076;2022-08-18T05:29:06;100809.66;;;20.14;53.26
60974;BME280;46846;51.528;5.076;2022-08-18T05:31:31;100816.00;;;20.13;53.30
60974;BME280;46846;51.528;5.076;2022-08-18T05:33:57;100814.19;;;20.13;53.10
60974;BME280;46846;51.528;5.076;2022-08-18T05:39:36;100807.91;;;20.13;52.43
60974;BME280;46846;51.528;5.076;2022-08-18T05:44:30;100804.09;;;20.04;52.83
60974;BME280;46846;51.528;5.076;2022-08-18T05:47:04;100820.91;;;20.07;52.27
60974;BME280;46846;51.528;5.076;2022-08-18T05:49:32;100817.59;;;20.04;52.18
60974;BME280;46846;51.528;5.076;2022-08-18T05:52:02;100816.59;;;20.05;52.18
60974;BME280;46846;51.528;5.076;2022-08-18T05:55:03;100813.16;;;20.03;51.97
60974;BME280;46846;51.528;5.076;2022-08-18T05:57:44;100816.72;;;20.03;52.23
60974;BME280;46846;51.528;5.076;2022-08-18T06:00:11;100820.50;;;20.01;53.19
60974;BME280;46846;51.528;5.076;2022-08-18T06:02:43;100821.91;;;20.06;54.00
60974;BME280;46846;51.528;5.076;2022-08-18T06:05:18;100814.66;;;20.07;54.15
60974;BME280;46846;51.528;5.076;2022-08-18T06:08:14;100816.72;;;20.03;55.30
60974;BME280;46846;51.528;5.076;2022-08-18T06:10:47;100818.56;;;20.03;54.96
60974;BME280;46846;51.528;5.076;2022-08-18T06:13:13;100822.34;;;20.00;55.12
60974;BME280;46846;51.528;5.076;2022-08-18T06:21:16;100830.69;;;19.97;54.43
60974;BME280;46846;51.528;5.076;2022-08-18T06:37:55;100840.28;;;20.01;53.49
60974;BME280;46846;51.528;5.076;2022-08-18T06:40:46;100835.00;;;20.00;53.66
60974;BME280;46846;51.528;5.076;2022-08-18T06:43:12;100840.19;;;20.03;53.84
60974;BME280;46846;51.528;5.076;2022-08-18T06:45:40;100840.81;;;20.06;53.54
60974;BME280;46846;51.528;5.076;2022-08-18T06:48:15;100844.25;;;20.08;53.42
60974;BME280;46846;51.528;5.076;2022-08-18T06:50:52;100840.56;;;20.10;53.05
60974;BME280;46846;51.528;5.076;2022-08-18T06:53:20;100851.25;;;20.11;53.30
60974;BME280;46846;51.528;5.076;2022-08-18T06:55:48;100850.19;;;20.14;53.11
60974;BME280;46846;51.528;5.076;2022-08-18T07:00:53;100845.28;;;20.19;52.96
60974;BME280;46846;51.528;5.076;2022-08-18T07:03:40;100846.53;;;20.26;52.50
60974;BME280;46846;51.528;5.076;2022-08-18T07:06:09;100852.69;;;20.28;52.51
60974;BME280;46846;51.528;5.076;2022-08-18T07:08:44;100856.16;;;20.30;52.55
60974;BME280;46846;51.528;5.076;2022-08-18T07:13:43;100860.84;;;20.40;52.93
60974;BME280;46846;51.528;5.076;2022-08-18T07:16:16;100851.13;;;20.37;52.82
60974;BME280;46846;51.528;5.076;2022-08-18T07:18:42;100853.63;;;20.40;52.78
60974;BME280;46846;51.528;5.076;2022-08-18T07:21:07;100847.09;;;20.43;52.74
60974;BME280;46846;51.528;5.076;2022-08-18T07:23:36;100848.59;;;20.47;52.87
60974;BME280;46846;51.528;5.076;2022-08-18T07:26:09;100851.81;;;20.52;54.45
60974;BME280;46846;51.528;5.076;2022-08-18T07:28:48;100842.47;;;20.56;52.77
60974;BME280;46846;51.528;5.076;2022-08-18T07:31:41;100851.81;;;20.63;52.65
60974;BME280;46846;51.528;5.076;2022-08-18T07:34:09;100862.19;;;20.70;53.11
60974;BME280;46846;51.528;5.076;2022-08-18T07:39:27;100847.81;;;20.81;53.09
60974;BME280;46846;51.528;5.076;2022-08-18T07:42:10;100843.28;;;20.81;52.54
60974;BME280;46846;51.528;5.076;2022-08-18T07:44:42;100858.09;;;20.88;53.23
60974;BME280;46846;51.528;5.076;2022-08-18T07:47:16;100854.03;;;20.94;52.84
60974;BME280;46846;51.528;5.076;2022-08-18T07:49:43;100856.47;;;20.97;52.76
60974;BME280;46846;51.528;5.076;2022-08-18T07:52:43;100851.69;;;21.01;52.70
60974;BME280;46846;51.528;5.076;2022-08-18T07:58:17;100853.03;;;21.07;52.89
60974;BME280;46846;51.528;5.076;2022-08-18T08:00:41;100847.53;;;21.08;53.08
60974;BME280;46846;51.528;5.076;2022-08-18T08:03:29;100858.59;;;21.16;52.87
60974;BME280;46846;51.528;5.076;2022-08-18T08:06:19;100856.28;;;21.23;52.86
60974;BME280;46846;51.528;5.076;2022-08-18T08:11:40;100866.72;;;21.28;53.55
60974;BME280;46846;51.528;5.076;2022-08-18T08:17:02;100864.50;;;21.44;53.32
60974;BME280;46846;51.528;5.076;2022-08-18T08:19:45;100864.03;;;21.51;52.89
60974;BME280;46846;51.528;5.076;2022-08-18T08:25:20;100860.31;;;21.63;52.96
60974;BME280;46846;51.528;5.076;2022-08-18T08:30:49;100866.34;;;21.78;52.42
60974;BME280;46846;51.528;5.076;2022-08-18T08:33:36;100864.00;;;21.85;53.09
60974;BME280;46846;51.528;5.076;2022-08-18T08:36:29;100865.47;;;21.89;52.66
60974;BME280;46846;51.528;5.076;2022-08-18T08:39:26;100864.97;;;21.95;52.49
60974;BME280;46846;51.528;5.076;2022-08-18T08:41:58;100860.88;;;22.01;52.35
60974;BME280;46846;51.528;5.076;2022-08-18T08:44:32;100861.13;;;22.09;52.62
60974;BME280;46846;51.528;5.076;2022-08-18T08:47:08;100866.16;;;22.14;52.34
60974;BME280;46846;51.528;5.076;2022-08-18T08:49:39;100861.69;;;22.24;52.71
60974;BME280;46846;51.528;5.076;2022-08-18T08:52:26;100872.13;;;22.29;52.55
60974;BME280;46846;51.528;5.076;2022-08-18T08:57:53;100868.25;;;22.43;52.01
60974;BME280;46846;51.528;5.076;2022-08-18T09:00:21;100875.88;;;22.49;52.13
60974;BME280;46846;51.528;5.076;2022-08-18T09:02:59;100875.13;;;22.59;52.04
60974;BME280;46846;51.528;5.076;2022-08-18T09:11:47;100871.28;;;22.83;51.85
60974;BME280;46846;51.528;5.076;2022-08-18T09:22:54;100876.31;;;23.08;51.53
60974;BME280;46846;51.528;5.076;2022-08-18T09:38:57;100861.34;;;23.45;51.31
60974;BME280;46846;51.528;5.076;2022-08-18T09:41:52;100863.53;;;23.52;50.93
60974;BME280;46846;51.528;5.076;2022-08-18T09:47:57;100866.41;;;23.60;51.04
60974;BME280;46846;51.528;5.076;2022-08-18T09:55:00;100850.59;;;23.75;50.80
60974;BME280;46846;51.528;5.076;2022-08-18T09:57:27;100853.59;;;23.82;50.67
60974;BME280;46846;51.528;5.076;2022-08-18T09:59:57;100859.38;;;23.88;50.90
60974;BME280;46846;51.528;5.076;2022-08-18T10:07:39;100859.94;;;24.02;50.54
60974;BME280;46846;51.528;5.076;2022-08-18T10:10:24;100856.94;;;24.05;50.55
60974;BME280;46846;51.528;5.076;2022-08-18T10:13:23;100855.09;;;24.06;50.31
60974;BME280;46846;51.528;5.076;2022-08-18T10:24:21;100841.53;;;24.25;50.02
60974;BME280;46846;51.528;5.076;2022-08-18T10:34:41;100840.69;;;24.44;49.52
60974;BME280;46846;51.528;5.076;2022-08-18T10:37:12;100836.50;;;24.50;49.48
60974;BME280;46846;51.528;5.076;2022-08-18T10:44:41;100831.81;;;24.52;49.47
60974;BME280;46846;51.528;5.076;2022-08-18T10:47:19;100827.91;;;24.55;49.10
60974;BME280;46846;51.528;5.076;2022-08-18T10:49:48;100830.50;;;24.56;49.46
60974;BME280;46846;51.528;5.076;2022-08-18T10:52:30;100829.50;;;24.57;49.36
60974;BME280;46846;51.528;5.076;2022-08-18T10:55:18;100832.06;;;24.59;49.42
60974;BME280;46846;51.528;5.076;2022-08-18T11:06:02;100834.78;;;24.79;48.87
60974;BME280;46846;51.528;5.076;2022-08-18T11:08:28;100835.19;;;24.84;48.66
60974;BME280;46846;51.528;5.076;2022-08-18T11:10:54;100833.22;;;24.86;48.82
60974;BME280;46846;51.528;5.076;2022-08-18T11:13:31;100827.78;;;24.86;48.83
60974;BME280;46846;51.528;5.076;2022-08-18T11:18:45;100825.44;;;24.91;48.67
60974;BME280;46846;51.528;5.076;2022-08-18T11:24:13;100825.16;;;24.94;48.76
60974;BME280;46846;51.528;5.076;2022-08-18T11:26:44;100822.13;;;24.97;47.83
60974;BME280;46846;51.528;5.076;2022-08-18T11:32:48;100807.94;;;25.04;48.36
60974;BME280;46846;51.528;5.076;2022-08-18T11:37:41;100799.63;;;25.05;48.61
60974;BME280;46846;51.528;5.076;2022-08-18T11:56:05;100798.47;;;25.08;48.29
60974;BME280;46846;51.528;5.076;2022-08-18T11:58:39;100790.88;;;25.11;48.42
60974;BME280;46846;51.528;5.076;2022-08-18T12:01:05;100792.41;;;25.14;48.27
60974;BME280;46846;51.528;5.076;2022-08-18T12:03:39;100788.69;;;25.15;48.31
60974;BME280;46846;51.528;5.076;2022-08-18T12:06:27;100789.69;;;25.14;48.37
60974;BME280;46846;51.528;5.076;2022-08-18T12:11:29;100802.00;;;25.18;48.30
60974;BME280;46846;51.528;5.076;2022-08-18T12:14:07;100797.41;;;25.19;48.19
60974;BME280;46846;51.528;5.076;2022-08-18T12:16:39;100797.72;;;25.16;48.26
60974;BME280;46846;51.528;5.076;2022-08-18T12:19:11;100793.69;;;25.20;48.13
60974;BME280;46846;51.528;5.076;2022-08-18T12:21:56;100795.41;;;25.21;48.11
60974;BME280;46846;51.528;5.076;2022-08-18T12:24:25;100790.66;;;25.23;48.24
60974;BME280;46846;51.528;5.076;2022-08-18T12:26:51;100792.22;;;25.25;48.11
60974;BME280;46846;51.528;5.076;2022-08-18T12:29:18;100790.91;;;25.30;47.97
60974;BME280;46846;51.528;5.076;2022-08-18T12:31:49;100784.47;;;25.31;47.96
60974;BME280;46846;51.528;5.076;2022-08-18T12:34:16;100797.78;;;25.34;48.16
60974;BME280;46846;51.528;5.076;2022-08-18T12:36:42;100794.63;;;25.29;48.37
60974;BME280;46846;51.528;5.076;2022-08-18T12:39:07;100793.47;;;25.31;48.14
60974;BME280;46846;51.528;5.076;2022-08-18T12:41:32;100795.75;;;25.36;47.94
60974;BME280;46846;51.528;5.076;2022-08-18T12:43:58;100806.09;;;25.32;47.76
60974;BME280;46846;51.528;5.076;2022-08-18T12:46:23;100806.09;;;25.32;47.99
60974;BME280;46846;51.528;5.076;2022-08-18T12:48:49;100796.63;;;25.36;47.96
60974;BME280;46846;51.528;5.076;2022-08-18T12:51:14;100799.47;;;25.35;47.98
60974;BME280;46846;51.528;5.076;2022-08-18T12:53:40;100791.03;;;25.38;48.02
60974;BME280;46846;51.528;5.076;2022-08-18T12:56:18;100803.78;;;25.37;48.06
60974;BME280;46846;51.528;5.076;2022-08-18T12:58:45;100812.63;;;25.39;48.33
60974;BME280;46846;51.528;5.076;2022-08-18T13:01:10;100819.38;;;25.45;47.98
60974;BME280;46846;51.528;5.076;2022-08-18T13:03:36;100816.34;;;25.48;47.97
60974;BME280;46846;51.528;5.076;2022-08-18T13:06:01;100814.75;;;25.46;47.66
60974;BME280;46846;51.528;5.076;2022-08-18T13:08:27;100815.63;;;25.46;47.54
60974;BME280;46846;51.528;5.076;2022-08-18T13:10:52;100832.13;;;25.45;47.76
60974;BME280;46846;51.528;5.076;2022-08-18T13:13:18;100827.81;;;25.52;48.00
60974;BME280;46846;51.528;5.076;2022-08-18T13:15:45;100828.81;;;25.51;47.83
60974;BME280;46846;51.528;5.076;2022-08-18T13:18:11;100834.97;;;25.53;47.81
60974;BME280;46846;51.528;5.076;2022-08-18T13:20:37;100833.81;;;25.56;47.67
60974;BME280;46846;51.528;5.076;2022-08-18T13:23:03;100832.66;;;25.58;47.75
60974;BME280;46846;51.528;5.076;2022-08-18T13:25:28;100827.03;;;25.60;46.91
60974;BME280;46846;51.528;5.076;2022-08-18T13:27:54;100823.34;;;25.61;47.31
60974;BME280;46846;51.528;5.076;2022-08-18T13:30:21;100821.44;;;25.61;47.36
60974;BME280;46846;51.528;5.076;2022-08-18T13:32:47;100823.00;;;25.64;47.63
60974;BME280;46846;51.528;5.076;2022-08-18T13:35:13;100830.88;;;25.67;47.54
60974;BME280;46846;51.528;5.076;2022-08-18T13:37:39;100816.41;;;25.66;47.48
60974;BME280;46846;51.528;5.076;2022-08-18T13:40:06;100823.25;;;25.71;47.52
60974;BME280;46846;51.528;5.076;2022-08-18T13:42:41;100823.09;;;25.72;47.06
60974;BME280;46846;51.528;5.076;2022-08-18T13:45:07;100825.28;;;25.69;47.40
60974;BME280;46846;51.528;5.076;2022-08-18T13:47:32;100821.00;;;25.66;46.90
60974;BME280;46846;51.528;5.076;2022-08-18T13:49:59;100822.28;;;25.72;47.26
60974;BME280;46846;51.528;5.076;2022-08-18T13:52:25;100816.50;;;25.75;47.28
60974;BME280;46846;51.528;5.076;2022-08-18T13:54:50;100815.34;;;25.77;47.00
60974;BME280;46846;51.528;5.076;2022-08-18T13:57:16;100807.31;;;25.76;47.28
60974;BME280;46846;51.528;5.076;2022-08-18T13:59:41;100801.00;;;25.75;47.27
60974;BME280;46846;51.528;5.076;2022-08-18T14:02:09;100792.84;;;25.75;46.90
60974;BME280;46846;51.528;5.076;2022-08-18T14:04:36;100796.41;;;25.76;47.08
60974;BME280;46846;51.528;5.076;2022-08-18T14:07:03;100795.56;;;25.75;47.30
60974;BME280;46846;51.528;5.076;2022-08-18T14:09:29;100794.56;;;25.76;47.00
60974;BME280;46846;51.528;5.076;2022-08-18T14:11:56;100788.50;;;25.83;47.35
60974;BME280;46846;51.528;5.076;2022-08-18T14:14:21;100790.88;;;25.86;46.72
60974;BME280;46846;51.528;5.076;2022-08-18T14:16:47;100787.28;;;25.85;47.24
60974;BME280;46846;51.528;5.076;2022-08-18T14:19:13;100785.13;;;25.89;46.89
60974;BME280;46846;51.528;5.076;2022-08-18T14:21:57;100780.69;;;25.88;47.42
60974;BME280;46846;51.528;5.076;2022-08-18T14:24:41;100776.56;;;25.84;46.96
60974;BME280;46846;51.528;5.076;2022-08-18T14:27:31;100765.19;;;25.88;47.36
60974;BME280;46846;51.528;5.076;2022-08-18T14:30:09;100759.28;;;25.93;47.08
60974;BME280;46846;51.528;5.076;2022-08-18T14:32:35;100755.19;;;25.97;46.94
60974;BME280;46846;51.528;5.076;2022-08-18T14:35:03;100752.88;;;26.02;47.10
60974;BME280;46846;51.528;5.076;2022-08-18T14:37:29;100750.16;;;26.02;46.95
60974;BME280;46846;51.528;5.076;2022-08-18T14:39:55;100745.72;;;26.01;47.20
60974;BME280;46846;51.528;5.076;2022-08-18T14:42:20;100741.97;;;26.02;46.97
60974;BME280;46846;51.528;5.076;2022-08-18T14:44:49;100749.66;;;26.07;46.61
60974;BME280;46846;51.528;5.076;2022-08-18T14:47:14;100754.59;;;26.03;46.91
60974;BME280;46846;51.528;5.076;2022-08-18T14:49:40;100759.34;;;26.01;47.05
60974;BME280;46846;51.528;5.076;2022-08-18T14:52:06;100769.56;;;25.99;46.61
60974;BME280;46846;51.528;5.076;2022-08-18T14:54:32;100759.81;;;25.97;46.89
60974;BME280;46846;51.528;5.076;2022-08-18T14:56:58;100749.44;;;26.00;46.48
60974;BME280;46846;51.528;5.076;2022-08-18T14:59:27;100759.34;;;26.01;46.39
60974;BME280;46846;51.528;5.076;2022-08-18T15:01:53;100754.28;;;26.06;46.45
60974;BME280;46846;51.528;5.076;2022-08-18T15:04:19;100753.56;;;26.04;46.51
60974;BME280;46846;51.528;5.076;2022-08-18T15:06:45;100757.16;;;26.05;46.61
60974;BME280;46846;51.528;5.076;2022-08-18T15:09:10;100746.88;;;25.99;46.76
60974;BME280;46846;51.528;5.076;2022-08-18T15:11:36;100747.91;;;25.98;46.82
60974;BME280;46846;51.528;5.076;2022-08-18T15:14:01;100756.00;;;26.07;46.72
60974;BME280;46846;51.528;5.076;2022-08-18T15:16:26;100749.03;;;26.13;46.52
60974;BME280;46846;51.528;5.076;2022-08-18T15:18:52;100762.38;;;26.16;46.16
60974;BME280;46846;51.528;5.076;2022-08-18T15:21:18;100757.22;;;26.13;46.30
60974;BME280;46846;51.528;5.076;2022-08-18T15:24:02;100756.28;;;26.04;46.38
60974;BME280;46846;51.528;5.076;2022-08-18T15:26:47;100759.03;;;26.04;46.18
60974;BME280;46846;51.528;5.076;2022-08-18T15:29:13;100754.50;;;26.13;46.71
60974;BME280;46846;51.528;5.076;2022-08-18T15:31:38;100758.19;;;26.22;46.54
60974;BME280;46846;51.528;5.076;2022-08-18T15:34:04;100755.28;;;26.24;46.42
60974;BME280;46846;51.528;5.076;2022-08-18T15:36:30;100756.47;;;26.21;46.30
60974;BME280;46846;51.528;5.076;2022-08-18T15:39:02;100760.06;;;26.21;45.95
60974;BME280;46846;51.528;5.076;2022-08-18T15:41:39;100756.31;;;26.23;46.03